sensor_id;sensor_type;location;lat;lon;timestamp;P1;durP1;ratioP1;P2;durP2;ratioP2
47539;SDS011;33280;52.152;21.052;2022-07-23T00:00:31;14.90;;;9.47;;
47539;SDS011;33280;52.152;21.052;2022-07-23T00:03:04;13.48;;;9.07;;
47539;SDS011;33280;52.152;21.052;2022-07-23T00:05:31;11.98;;;8.93;;
47539;SDS011;33280;52.152;21.052;2022-07-23T00:08:00;15.07;;;9.85;;
47539;SDS011;33280;52.152;21.052;2022-07-23T00:10:27;12.40;;;9.20;;
47539;SDS011;33280;52.152;21.052;2022-07-23T00:12:54;15.82;;;9.45;;
47539;SDS011;33280;52.152;21.052;2022-07-23T00:15:22;14.48;;;9.45;;
47539;SDS011;33280;52.152;21.052;2022-07-23T00:17:49;12.88;;;9.65;;
47539;SDS011;33280;52.152;21.052;2022-07-23T00:20:16;16.23;;;10.30;;
47539;SDS011;33280;52.152;21.052;2022-07-23T00:22:47;14.15;;;10.05;;
47539;SDS011;33280;52.152;21.052;2022-07-23T00:25:14;18.52;;;9.95;;
47539;SDS011;33280;52.152;21.052;2022-07-23T00:27:58;12.05;;;9.20;;
47539;SDS011;33280;52.152;21.052;2022-07-23T00:30:26;12.55;;;9.48;;
47539;SDS011;33280;52.152;21.052;2022-07-23T00:32:57;14.43;;;9.82;;
47539;SDS011;33280;52.152;21.052;2022-07-23T00:35:30;14.97;;;10.33;;
47539;SDS011;33280;52.152;21.052;2022-07-23T00:37:58;12.88;;;10.02;;
47539;SDS011;33280;52.152;21.052;2022-07-23T00:40:26;12.15;;;8.98;;
47539;SDS011;33280;52.152;21.052;2022-07-23T00:42:54;12.32;;;9.10;;
47539;SDS011;33280;52.152;21.052;2022-07-23T00:45:21;12.30;;;9.80;;
47539;SDS011;33280;52.152;21.052;2022-07-23T00:47:48;15.13;;;10.02;;
47539;SDS011;33280;52.152;21.052;2022-07-23T00:50:15;15.02;;;10.20;;
47539;SDS011;33280;52.152;21.052;2022-07-23T00:52:42;15.93;;;10.20;;
47539;SDS011;33280;52.152;21.052;2022-07-23T00:55:10;14.90;;;9.98;;
47539;SDS011;33280;52.152;21.052;2022-07-23T00:57:38;14.50;;;10.02;;
47539;SDS011;33280;52.152;21.052;2022-07-23T01:00:06;15.90;;;10.43;;
47539;SDS011;33280;52.152;21.052;2022-07-23T01:02:37;15.67;;;10.60;;
47539;SDS011;33280;52.152;21.052;2022-07-23T01:05:04;14.38;;;9.88;;
47539;SDS011;33280;52.152;21.052;2022-07-23T01:07:31;12.13;;;9.80;;
47539;SDS011;33280;52.152;21.052;2022-07-23T01:09:59;17.77;;;10.43;;
47539;SDS011;33280;52.152;21.052;2022-07-23T01:12:27;22.10;;;13.67;;
47539;SDS011;33280;52.152;21.052;2022-07-23T01:14:57;16.00;;;10.27;;
47539;SDS011;33280;52.152;21.052;2022-07-23T01:17:25;15.17;;;10.37;;
47539;SDS011;33280;52.152;21.052;2022-07-23T01:19:53;14.85;;;10.10;;
47539;SDS011;33280;52.152;21.052;2022-07-23T01:22:20;14.13;;;9.77;;
47539;SDS011;33280;52.152;21.052;2022-07-23T01:24:47;17.00;;;10.03;;
47539;SDS011;33280;52.152;21.052;2022-07-23T01:27:14;14.63;;;9.98;;
47539;SDS011;33280;52.152;21.052;2022-07-23T01:29:41;13.45;;;9.68;;
47539;SDS011;33280;52.152;21.052;2022-07-23T01:32:08;14.43;;;9.50;;
47539;SDS011;33280;52.152;21.052;2022-07-23T01:34:34;12.70;;;9.70;;
47539;SDS011;33280;52.152;21.052;2022-07-23T01:37:01;14.53;;;9.77;;
47539;SDS011;33280;52.152;21.052;2022-07-23T01:39:28;12.93;;;9.57;;
47539;SDS011;33280;52.152;21.052;2022-07-23T01:41:55;12.13;;;9.63;;
47539;SDS011;33280;52.152;21.052;2022-07-23T01:44:22;14.88;;;10.13;;
47539;SDS011;33280;52.152;21.052;2022-07-23T01:46:49;16.43;;;10.60;;
47539;SDS011;33280;52.152;21.052;2022-07-23T01:49:16;17.02;;;10.57;;
47539;SDS011;33280;52.152;21.052;2022-07-23T01:51:43;14.15;;;10.25;;
47539;SDS011;33280;52.152;21.052;2022-07-23T01:54:29;13.77;;;10.73;;
47539;SDS011;33280;52.152;21.052;2022-07-23T01:56:57;14.97;;;10.47;;
47539;SDS011;33280;52.152;21.052;2022-07-23T01:59:24;15.47;;;10.80;;
47539;SDS011;33280;52.152;21.052;2022-07-23T02:01:52;15.67;;;11.07;;
47539;SDS011;33280;52.152;21.052;2022-07-23T02:04:19;17.50;;;12.17;;
47539;SDS011;33280;52.152;21.052;2022-07-23T02:06:47;19.50;;;12.70;;
47539;SDS011;33280;52.152;21.052;2022-07-23T02:09:14;20.90;;;13.20;;
47539;SDS011;33280;52.152;21.052;2022-07-23T02:11:41;18.30;;;12.53;;
47539;SDS011;33280;52.152;21.052;2022-07-23T02:14:08;19.17;;;12.93;;
47539;SDS011;33280;52.152;21.052;2022-07-23T02:16:35;19.57;;;13.20;;
47539;SDS011;33280;52.152;21.052;2022-07-23T02:19:02;18.27;;;13.30;;
47539;SDS011;33280;52.152;21.052;2022-07-23T02:21:30;20.60;;;13.83;;
47539;SDS011;33280;52.152;21.052;2022-07-23T02:23:57;22.20;;;13.70;;
47539;SDS011;33280;52.152;21.052;2022-07-23T02:26:24;19.63;;;14.27;;
47539;SDS011;33280;52.152;21.052;2022-07-23T02:28:51;19.47;;;13.37;;
47539;SDS011;33280;52.152;21.052;2022-07-23T02:31:19;20.20;;;13.97;;
47539;SDS011;33280;52.152;21.052;2022-07-23T02:33:46;18.23;;;13.40;;
47539;SDS011;33280;52.152;21.052;2022-07-23T02:36:13;22.73;;;14.13;;
47539;SDS011;33280;52.152;21.052;2022-07-23T02:38:40;19.60;;;13.50;;
47539;SDS011;33280;52.152;21.052;2022-07-23T02:41:07;20.47;;;13.47;;
47539;SDS011;33280;52.152;21.052;2022-07-23T02:43:35;22.83;;;13.70;;
47539;SDS011;33280;52.152;21.052;2022-07-23T02:46:02;20.50;;;13.63;;
47539;SDS011;33280;52.152;21.052;2022-07-23T02:48:29;19.33;;;13.17;;
47539;SDS011;33280;52.152;21.052;2022-07-23T02:50:59;20.60;;;14.27;;
47539;SDS011;33280;52.152;21.052;2022-07-23T02:53:26;19.43;;;13.93;;
47539;SDS011;33280;52.152;21.052;2022-07-23T02:55:53;21.93;;;14.07;;
47539;SDS011;33280;52.152;21.052;2022-07-23T02:58:20;21.40;;;14.33;;
47539;SDS011;33280;52.152;21.052;2022-07-23T03:00:47;22.73;;;13.03;;
47539;SDS011;33280;52.152;21.052;2022-07-23T03:03:14;18.83;;;13.87;;
47539;SDS011;33280;52.152;21.052;2022-07-23T03:05:41;18.63;;;13.77;;
47539;SDS011;33280;52.152;21.052;2022-07-23T03:08:08;19.23;;;14.03;;
47539;SDS011;33280;52.152;21.052;2022-07-23T03:10:35;20.80;;;14.07;;
47539;SDS011;33280;52.152;21.052;2022-07-23T03:13:02;22.77;;;14.50;;
47539;SDS011;33280;52.152;21.052;2022-07-23T03:15:29;20.10;;;13.77;;
47539;SDS011;33280;52.152;21.052;2022-07-23T03:17:55;20.50;;;13.73;;
47539;SDS011;33280;52.152;21.052;2022-07-23T03:20:22;22.50;;;14.57;;
47539;SDS011;33280;52.152;21.052;2022-07-23T03:22:49;22.77;;;14.53;;
47539;SDS011;33280;52.152;21.052;2022-07-23T03:25:16;21.40;;;13.83;;
47539;SDS011;33280;52.152;21.052;2022-07-23T03:27:43;19.57;;;13.97;;
47539;SDS011;33280;52.152;21.052;2022-07-23T03:30:11;20.23;;;13.70;;
47539;SDS011;33280;52.152;21.052;2022-07-23T03:32:38;21.53;;;14.00;;
47539;SDS011;33280;52.152;21.052;2022-07-23T03:35:06;23.67;;;14.57;;
47539;SDS011;33280;52.152;21.052;2022-07-23T03:37:34;21.37;;;14.33;;
47539;SDS011;33280;52.152;21.052;2022-07-23T03:40:01;24.13;;;15.10;;
47539;SDS011;33280;52.152;21.052;2022-07-23T03:42:28;23.37;;;14.40;;
47539;SDS011;33280;52.152;21.052;2022-07-23T03:44:55;21.37;;;13.80;;
47539;SDS011;33280;52.152;21.052;2022-07-23T03:47:22;21.27;;;14.83;;
47539;SDS011;33280;52.152;21.052;2022-07-23T03:49:49;20.77;;;14.27;;
47539;SDS011;33280;52.152;21.052;2022-07-23T03:52:16;22.77;;;15.33;;
47539;SDS011;33280;52.152;21.052;2022-07-23T03:54:43;22.17;;;15.33;;
47539;SDS011;33280;52.152;21.052;2022-07-23T03:57:10;20.30;;;14.80;;
47539;SDS011;33280;52.152;21.052;2022-07-23T03:59:36;23.80;;;15.43;;
47539;SDS011;33280;52.152;21.052;2022-07-23T04:02:03;23.63;;;15.77;;
47539;SDS011;33280;52.152;21.052;2022-07-23T04:04:30;23.33;;;15.70;;
47539;SDS011;33280;52.152;21.052;2022-07-23T04:06:57;18.03;;;14.67;;
47539;SDS011;33280;52.152;21.052;2022-07-23T04:09:24;21.53;;;15.70;;
47539;SDS011;33280;52.152;21.052;2022-07-23T04:11:51;21.47;;;15.27;;
47539;SDS011;33280;52.152;21.052;2022-07-23T04:14:18;20.57;;;15.03;;
47539;SDS011;33280;52.152;21.052;2022-07-23T04:16:45;23.60;;;15.87;;
47539;SDS011;33280;52.152;21.052;2022-07-23T04:19:12;24.17;;;15.63;;
47539;SDS011;33280;52.152;21.052;2022-07-23T04:21:38;21.83;;;14.80;;
47539;SDS011;33280;52.152;21.052;2022-07-23T04:24:05;25.20;;;16.03;;
47539;SDS011;33280;52.152;21.052;2022-07-23T04:26:32;23.07;;;14.90;;
47539;SDS011;33280;52.152;21.052;2022-07-23T04:28:59;21.93;;;15.70;;
47539;SDS011;33280;52.152;21.052;2022-07-23T04:31:27;23.63;;;14.93;;
47539;SDS011;33280;52.152;21.052;2022-07-23T04:34:00;23.37;;;15.93;;
47539;SDS011;33280;52.152;21.052;2022-07-23T04:36:27;26.53;;;15.13;;
47539;SDS011;33280;52.152;21.052;2022-07-23T04:38:54;21.73;;;15.63;;
47539;SDS011;33280;52.152;21.052;2022-07-23T04:41:21;22.17;;;14.87;;
47539;SDS011;33280;52.152;21.052;2022-07-23T04:43:48;23.03;;;15.23;;
47539;SDS011;33280;52.152;21.052;2022-07-23T04:46:15;21.23;;;15.57;;
47539;SDS011;33280;52.152;21.052;2022-07-23T04:48:42;24.27;;;15.20;;
47539;SDS011;33280;52.152;21.052;2022-07-23T04:51:09;24.00;;;15.83;;
47539;SDS011;33280;52.152;21.052;2022-07-23T04:53:37;23.80;;;14.90;;
47539;SDS011;33280;52.152;21.052;2022-07-23T04:56:04;26.30;;;15.40;;
47539;SDS011;33280;52.152;21.052;2022-07-23T04:58:31;20.37;;;14.90;;
47539;SDS011;33280;52.152;21.052;2022-07-23T05:00:58;25.50;;;14.80;;
47539;SDS011;33280;52.152;21.052;2022-07-23T05:03:25;20.43;;;14.47;;
47539;SDS011;33280;52.152;21.052;2022-07-23T05:05:52;22.30;;;14.40;;
47539;SDS011;33280;52.152;21.052;2022-07-23T05:08:19;18.93;;;13.73;;
47539;SDS011;33280;52.152;21.052;2022-07-23T05:10:46;20.63;;;13.87;;
47539;SDS011;33280;52.152;21.052;2022-07-23T05:13:14;20.47;;;13.20;;
47539;SDS011;33280;52.152;21.052;2022-07-23T05:15:42;19.53;;;14.13;;
47539;SDS011;33280;52.152;21.052;2022-07-23T05:18:10;23.80;;;13.70;;
47539;SDS011;33280;52.152;21.052;2022-07-23T05:20:37;18.77;;;13.67;;
47539;SDS011;33280;52.152;21.052;2022-07-23T05:23:04;20.48;;;12.90;;
47539;SDS011;33280;52.152;21.052;2022-07-23T05:25:31;16.63;;;12.53;;
47539;SDS011;33280;52.152;21.052;2022-07-23T05:27:58;17.90;;;13.30;;
47539;SDS011;33280;52.152;21.052;2022-07-23T05:30:24;15.80;;;11.83;;
47539;SDS011;33280;52.152;21.052;2022-07-23T05:32:51;18.58;;;12.70;;
47539;SDS011;33280;52.152;21.052;2022-07-23T05:35:18;16.38;;;12.32;;
47539;SDS011;33280;52.152;21.052;2022-07-23T05:37:45;19.37;;;12.37;;
47539;SDS011;33280;52.152;21.052;2022-07-23T05:40:12;20.00;;;12.40;;
47539;SDS011;33280;52.152;21.052;2022-07-23T05:42:40;17.95;;;12.65;;
47539;SDS011;33280;52.152;21.052;2022-07-23T05:45:08;16.25;;;11.82;;
47539;SDS011;33280;52.152;21.052;2022-07-23T05:47:46;16.33;;;12.03;;
47539;SDS011;33280;52.152;21.052;2022-07-23T05:50:14;17.80;;;11.85;;
47539;SDS011;33280;52.152;21.052;2022-07-23T05:52:42;17.05;;;11.55;;
47539;SDS011;33280;52.152;21.052;2022-07-23T05:55:10;16.27;;;11.37;;
47539;SDS011;33280;52.152;21.052;2022-07-23T05:57:39;16.05;;;11.82;;
47539;SDS011;33280;52.152;21.052;2022-07-23T06:00:07;14.32;;;11.30;;
47539;SDS011;33280;52.152;21.052;2022-07-23T06:02:36;14.77;;;11.40;;
47539;SDS011;33280;52.152;21.052;2022-07-23T06:05:04;18.88;;;11.60;;
47539;SDS011;33280;52.152;21.052;2022-07-23T06:07:34;15.23;;;11.23;;
47539;SDS011;33280;52.152;21.052;2022-07-23T06:10:01;17.02;;;11.18;;
47539;SDS011;33280;52.152;21.052;2022-07-23T06:12:29;20.90;;;11.82;;
47539;SDS011;33280;52.152;21.052;2022-07-23T06:14:56;14.45;;;10.30;;
47539;SDS011;33280;52.152;21.052;2022-07-23T06:17:23;15.10;;;11.18;;
47539;SDS011;33280;52.152;21.052;2022-07-23T06:19:51;14.80;;;10.40;;
47539;SDS011;33280;52.152;21.052;2022-07-23T06:22:18;15.30;;;10.75;;
47539;SDS011;33280;52.152;21.052;2022-07-23T06:24:45;14.93;;;9.90;;
47539;SDS011;33280;52.152;21.052;2022-07-23T06:27:12;15.52;;;10.43;;
47539;SDS011;33280;52.152;21.052;2022-07-23T06:29:38;14.57;;;10.80;;
47539;SDS011;33280;52.152;21.052;2022-07-23T06:32:07;12.73;;;9.82;;
47539;SDS011;33280;52.152;21.052;2022-07-23T06:34:34;16.38;;;10.20;;
47539;SDS011;33280;52.152;21.052;2022-07-23T06:37:01;13.15;;;9.90;;
47539;SDS011;33280;52.152;21.052;2022-07-23T06:39:28;15.15;;;10.20;;
47539;SDS011;33280;52.152;21.052;2022-07-23T06:41:55;13.80;;;9.77;;
47539;SDS011;33280;52.152;21.052;2022-07-23T06:44:26;13.45;;;9.50;;
47539;SDS011;33280;52.152;21.052;2022-07-23T06:46:53;15.32;;;9.50;;
47539;SDS011;33280;52.152;21.052;2022-07-23T06:49:20;14.30;;;8.90;;
47539;SDS011;33280;52.152;21.052;2022-07-23T06:51:47;16.50;;;9.85;;
47539;SDS011;33280;52.152;21.052;2022-07-23T06:54:14;13.25;;;9.70;;
47539;SDS011;33280;52.152;21.052;2022-07-23T06:56:41;15.82;;;10.15;;
47539;SDS011;33280;52.152;21.052;2022-07-23T06:59:09;16.65;;;10.75;;
47539;SDS011;33280;52.152;21.052;2022-07-23T07:01:36;13.85;;;10.27;;
47539;SDS011;33280;52.152;21.052;2022-07-23T07:04:03;14.55;;;10.13;;
47539;SDS011;33280;52.152;21.052;2022-07-23T07:06:30;12.10;;;8.98;;
47539;SDS011;33280;52.152;21.052;2022-07-23T07:08:57;14.35;;;9.30;;
47539;SDS011;33280;52.152;21.052;2022-07-23T07:11:25;14.20;;;9.18;;
47539;SDS011;33280;52.152;21.052;2022-07-23T07:13:52;11.73;;;9.32;;
47539;SDS011;33280;52.152;21.052;2022-07-23T07:16:19;11.40;;;9.18;;
47539;SDS011;33280;52.152;21.052;2022-07-23T07:18:46;12.07;;;8.90;;
47539;SDS011;33280;52.152;21.052;2022-07-23T07:21:13;10.70;;;9.10;;
47539;SDS011;33280;52.152;21.052;2022-07-23T07:23:40;12.57;;;9.00;;
47539;SDS011;33280;52.152;21.052;2022-07-23T07:26:07;13.95;;;10.13;;
47539;SDS011;33280;52.152;21.052;2022-07-23T07:28:34;14.10;;;9.73;;
47539;SDS011;33280;52.152;21.052;2022-07-23T07:31:00;12.30;;;9.40;;
47539;SDS011;33280;52.152;21.052;2022-07-23T07:33:28;12.45;;;9.35;;
47539;SDS011;33280;52.152;21.052;2022-07-23T07:35:55;12.43;;;9.30;;
47539;SDS011;33280;52.152;21.052;2022-07-23T07:38:22;11.50;;;9.40;;
47539;SDS011;33280;52.152;21.052;2022-07-23T07:40:49;13.38;;;9.63;;
47539;SDS011;33280;52.152;21.052;2022-07-23T07:43:16;17.13;;;9.98;;
47539;SDS011;33280;52.152;21.052;2022-07-23T07:45:43;13.77;;;9.52;;
47539;SDS011;33280;52.152;21.052;2022-07-23T07:48:10;14.18;;;9.57;;
47539;SDS011;33280;52.152;21.052;2022-07-23T07:50:37;15.32;;;9.20;;
47539;SDS011;33280;52.152;21.052;2022-07-23T07:53:04;11.40;;;9.02;;
47539;SDS011;33280;52.152;21.052;2022-07-23T07:55:31;13.38;;;9.32;;
47539;SDS011;33280;52.152;21.052;2022-07-23T07:57:58;11.43;;;9.25;;
47539;SDS011;33280;52.152;21.052;2022-07-23T08:00:27;17.17;;;9.00;;
47539;SDS011;33280;52.152;21.052;2022-07-23T08:02:55;12.95;;;9.57;;
47539;SDS011;33280;52.152;21.052;2022-07-23T08:05:25;13.20;;;8.93;;
47539;SDS011;33280;52.152;21.052;2022-07-23T08:07:57;10.73;;;8.18;;
47539;SDS011;33280;52.152;21.052;2022-07-23T08:10:26;11.85;;;8.88;;
47539;SDS011;33280;52.152;21.052;2022-07-23T08:12:55;11.27;;;8.80;;
47539;SDS011;33280;52.152;21.052;2022-07-23T08:15:25;12.57;;;8.70;;
47539;SDS011;33280;52.152;21.052;2022-07-23T08:17:53;14.68;;;8.95;;
47539;SDS011;33280;52.152;21.052;2022-07-23T08:20:22;13.80;;;9.25;;
47539;SDS011;33280;52.152;21.052;2022-07-23T08:22:54;10.85;;;9.35;;
47539;SDS011;33280;52.152;21.052;2022-07-23T08:25:24;13.52;;;9.30;;
47539;SDS011;33280;52.152;21.052;2022-07-23T08:27:56;10.68;;;8.90;;
47539;SDS011;33280;52.152;21.052;2022-07-23T08:30:24;11.32;;;8.68;;
47539;SDS011;33280;52.152;21.052;2022-07-23T08:32:53;10.25;;;8.38;;
47539;SDS011;33280;52.152;21.052;2022-07-23T08:35:30;9.82;;;8.40;;
47539;SDS011;33280;52.152;21.052;2022-07-23T08:37:59;10.45;;;8.50;;
47539;SDS011;33280;52.152;21.052;2022-07-23T08:40:28;12.00;;;8.85;;
47539;SDS011;33280;52.152;21.052;2022-07-23T08:42:59;12.77;;;9.13;;
47539;SDS011;33280;52.152;21.052;2022-07-23T08:45:30;9.52;;;8.50;;
47539;SDS011;33280;52.152;21.052;2022-07-23T08:48:03;10.55;;;8.55;;
47539;SDS011;33280;52.152;21.052;2022-07-23T08:50:34;10.65;;;8.02;;
47539;SDS011;33280;52.152;21.052;2022-07-23T08:53:07;12.73;;;7.95;;
47539;SDS011;33280;52.152;21.052;2022-07-23T08:55:34;10.27;;;7.38;;
47539;SDS011;33280;52.152;21.052;2022-07-23T08:58:01;10.75;;;7.80;;
47539;SDS011;33280;52.152;21.052;2022-07-23T09:00:29;12.20;;;7.70;;
47539;SDS011;33280;52.152;21.052;2022-07-23T09:02:57;10.98;;;8.38;;
47539;SDS011;33280;52.152;21.052;2022-07-23T09:05:24;11.23;;;7.95;;
47539;SDS011;33280;52.152;21.052;2022-07-23T09:13:30;9.95;;;7.82;;
47539;SDS011;33280;52.152;21.052;2022-07-23T09:15:59;10.13;;;7.82;;
47539;SDS011;33280;52.152;21.052;2022-07-23T09:18:35;11.88;;;8.68;;
47539;SDS011;33280;52.152;21.052;2022-07-23T09:21:08;10.60;;;8.32;;
47539;SDS011;33280;52.152;21.052;2022-07-23T09:23:52;15.30;;;8.38;;
47539;SDS011;33280;52.152;21.052;2022-07-23T09:26:20;10.32;;;8.27;;
47539;SDS011;33280;52.152;21.052;2022-07-23T09:29:03;10.32;;;7.88;;
47539;SDS011;33280;52.152;21.052;2022-07-23T09:31:42;12.32;;;8.00;;
47539;SDS011;33280;52.152;21.052;2022-07-23T09:34:16;9.82;;;7.38;;
47539;SDS011;33280;52.152;21.052;2022-07-23T09:36:43;9.25;;;7.43;;
47539;SDS011;33280;52.152;21.052;2022-07-23T09:39:11;9.32;;;7.03;;
47539;SDS011;33280;52.152;21.052;2022-07-23T09:41:43;8.55;;;7.50;;
47539;SDS011;33280;52.152;21.052;2022-07-23T09:44:15;10.30;;;7.65;;
47539;SDS011;33280;52.152;21.052;2022-07-23T09:46:48;8.82;;;6.60;;
47539;SDS011;33280;52.152;21.052;2022-07-23T09:49:20;9.98;;;6.82;;
47539;SDS011;33280;52.152;21.052;2022-07-23T09:51:55;12.70;;;7.18;;
47539;SDS011;33280;52.152;21.052;2022-07-23T09:56:53;12.70;;;8.00;;
47539;SDS011;33280;52.152;21.052;2022-07-23T09:59:25;8.25;;;6.90;;
47539;SDS011;33280;52.152;21.052;2022-07-23T10:01:54;9.40;;;7.40;;
47539;SDS011;33280;52.152;21.052;2022-07-23T10:04:23;9.32;;;7.47;;
47539;SDS011;33280;52.152;21.052;2022-07-23T10:06:51;11.15;;;7.60;;
47539;SDS011;33280;52.152;21.052;2022-07-23T10:09:33;8.57;;;7.40;;
47539;SDS011;33280;52.152;21.052;2022-07-23T10:12:02;9.95;;;7.43;;
47539;SDS011;33280;52.152;21.052;2022-07-23T10:14:44;9.50;;;7.43;;
47539;SDS011;33280;52.152;21.052;2022-07-23T10:17:11;9.82;;;7.28;;
47539;SDS011;33280;52.152;21.052;2022-07-23T10:19:38;9.82;;;7.18;;
47539;SDS011;33280;52.152;21.052;2022-07-23T10:22:07;9.40;;;6.93;;
47539;SDS011;33280;52.152;21.052;2022-07-23T10:24:47;11.13;;;7.55;;
47539;SDS011;33280;52.152;21.052;2022-07-23T10:30:16;8.25;;;7.03;;
47539;SDS011;33280;52.152;21.052;2022-07-23T10:33:24;8.52;;;7.07;;
47539;SDS011;33280;52.152;21.052;2022-07-23T10:36:01;10.80;;;7.47;;
47539;SDS011;33280;52.152;21.052;2022-07-23T10:41:19;10.30;;;7.20;;
47539;SDS011;33280;52.152;21.052;2022-07-23T10:44:12;9.90;;;6.85;;
47539;SDS011;33280;52.152;21.052;2022-07-23T10:49:30;8.98;;;6.82;;
47539;SDS011;33280;52.152;21.052;2022-07-23T10:54:41;7.72;;;6.55;;
47539;SDS011;33280;52.152;21.052;2022-07-23T10:57:12;9.23;;;7.55;;
47539;SDS011;33280;52.152;21.052;2022-07-23T11:02:28;8.35;;;7.07;;
47539;SDS011;33280;52.152;21.052;2022-07-23T11:05:15;8.77;;;7.25;;
47539;SDS011;33280;52.152;21.052;2022-07-23T11:10:45;9.13;;;7.00;;
47539;SDS011;33280;52.152;21.052;2022-07-23T11:34:46;7.70;;;6.88;;
47539;SDS011;33280;52.152;21.052;2022-07-23T11:37:27;9.00;;;6.40;;
47539;SDS011;33280;52.152;21.052;2022-07-23T11:42:36;8.20;;;6.57;;
47539;SDS011;33280;52.152;21.052;2022-07-23T11:45:16;8.57;;;6.65;;
47539;SDS011;33280;52.152;21.052;2022-07-23T11:47:43;9.85;;;7.05;;
47539;SDS011;33280;52.152;21.052;2022-07-23T11:50:10;9.02;;;6.80;;
47539;SDS011;33280;52.152;21.052;2022-07-23T11:52:38;8.77;;;6.50;;
47539;SDS011;33280;52.152;21.052;2022-07-23T11:55:06;9.00;;;6.88;;
47539;SDS011;33280;52.152;21.052;2022-07-23T11:57:37;7.65;;;6.45;;
47539;SDS011;33280;52.152;21.052;2022-07-23T12:02:48;7.32;;;6.53;;
47539;SDS011;33280;52.152;21.052;2022-07-23T12:05:24;10.95;;;7.13;;
47539;SDS011;33280;52.152;21.052;2022-07-23T12:07:53;10.35;;;7.30;;
47539;SDS011;33280;52.152;21.052;2022-07-23T12:10:22;8.30;;;6.65;;
47539;SDS011;33280;52.152;21.052;2022-07-23T12:15:36;12.32;;;6.57;;
47539;SDS011;33280;52.152;21.052;2022-07-23T12:18:09;8.32;;;6.53;;
47539;SDS011;33280;52.152;21.052;2022-07-23T12:20:42;6.90;;;6.13;;
47539;SDS011;33280;52.152;21.052;2022-07-23T12:23:11;6.90;;;6.20;;
47539;SDS011;33280;52.152;21.052;2022-07-23T12:25:47;11.93;;;6.63;;
47539;SDS011;33280;52.152;21.052;2022-07-23T12:28:16;7.05;;;6.35;;
47539;SDS011;33280;52.152;21.052;2022-07-23T12:30:48;8.93;;;6.65;;
47539;SDS011;33280;52.152;21.052;2022-07-23T12:35:51;7.78;;;6.65;;
47539;SDS011;33280;52.152;21.052;2022-07-23T12:38:20;7.03;;;6.32;;
47539;SDS011;33280;52.152;21.052;2022-07-23T12:40:52;7.95;;;6.40;;
47539;SDS011;33280;52.152;21.052;2022-07-23T12:45:50;7.05;;;6.35;;
47539;SDS011;33280;52.152;21.052;2022-07-23T12:48:27;7.25;;;6.53;;
47539;SDS011;33280;52.152;21.052;2022-07-23T12:51:30;8.32;;;6.35;;
47539;SDS011;33280;52.152;21.052;2022-07-23T12:53:52;9.02;;;6.50;;
47539;SDS011;33280;52.152;21.052;2022-07-23T12:56:22;8.43;;;6.32;;
47539;SDS011;33280;52.152;21.052;2022-07-23T13:01:32;7.88;;;6.10;;
47539;SDS011;33280;52.152;21.052;2022-07-23T13:04:13;8.35;;;6.18;;
47539;SDS011;33280;52.152;21.052;2022-07-23T13:06:51;7.22;;;6.53;;
47539;SDS011;33280;52.152;21.052;2022-07-23T13:09:24;8.40;;;6.50;;
47539;SDS011;33280;52.152;21.052;2022-07-23T13:11:58;9.40;;;6.90;;
47539;SDS011;33280;52.152;21.052;2022-07-23T13:14:27;7.47;;;6.45;;
47539;SDS011;33280;52.152;21.052;2022-07-23T13:16:55;15.23;;;7.20;;
47539;SDS011;33280;52.152;21.052;2022-07-23T13:19:24;8.63;;;6.85;;
47539;SDS011;33280;52.152;21.052;2022-07-23T13:21:53;10.38;;;7.35;;
47539;SDS011;33280;52.152;21.052;2022-07-23T13:24:20;14.98;;;7.40;;
47539;SDS011;33280;52.152;21.052;2022-07-23T13:26:47;8.73;;;6.90;;
47539;SDS011;33280;52.152;21.052;2022-07-23T13:29:17;8.50;;;7.00;;
47539;SDS011;33280;52.152;21.052;2022-07-23T13:31:45;10.60;;;7.38;;
47539;SDS011;33280;52.152;21.052;2022-07-23T13:34:13;12.80;;;7.40;;
47539;SDS011;33280;52.152;21.052;2022-07-23T13:36:39;13.15;;;7.25;;
47539;SDS011;33280;52.152;21.052;2022-07-23T13:39:06;11.45;;;7.25;;
47539;SDS011;33280;52.152;21.052;2022-07-23T13:41:35;7.55;;;6.85;;
47539;SDS011;33280;52.152;21.052;2022-07-23T13:44:03;10.15;;;7.07;;
47539;SDS011;33280;52.152;21.052;2022-07-23T13:46:32;7.82;;;6.88;;
47539;SDS011;33280;52.152;21.052;2022-07-23T13:49:00;8.00;;;7.10;;
47539;SDS011;33280;52.152;21.052;2022-07-23T13:51:28;11.65;;;7.25;;
47539;SDS011;33280;52.152;21.052;2022-07-23T13:53:55;7.45;;;6.65;;
47539;SDS011;33280;52.152;21.052;2022-07-23T13:56:25;11.15;;;7.28;;
47539;SDS011;33280;52.152;21.052;2022-07-23T13:58:52;11.48;;;7.43;;
47539;SDS011;33280;52.152;21.052;2022-07-23T14:01:19;9.40;;;7.80;;
47539;SDS011;33280;52.152;21.052;2022-07-23T14:03:46;9.10;;;7.03;;
47539;SDS011;33280;52.152;21.052;2022-07-23T14:06:13;11.25;;;7.53;;
47539;SDS011;33280;52.152;21.052;2022-07-23T14:08:42;8.73;;;7.13;;
47539;SDS011;33280;52.152;21.052;2022-07-23T14:11:11;10.05;;;7.18;;
47539;SDS011;33280;52.152;21.052;2022-07-23T14:13:38;10.63;;;7.50;;
47539;SDS011;33280;52.152;21.052;2022-07-23T14:16:06;8.38;;;7.47;;
47539;SDS011;33280;52.152;21.052;2022-07-23T14:18:33;15.05;;;8.02;;
47539;SDS011;33280;52.152;21.052;2022-07-23T14:21:01;8.73;;;7.35;;
47539;SDS011;33280;52.152;21.052;2022-07-23T14:23:29;9.32;;;7.95;;
47539;SDS011;33280;52.152;21.052;2022-07-23T14:25:56;9.07;;;7.82;;
47539;SDS011;33280;52.152;21.052;2022-07-23T14:28:23;9.10;;;7.15;;
47539;SDS011;33280;52.152;21.052;2022-07-23T14:30:50;8.95;;;7.63;;
47539;SDS011;33280;52.152;21.052;2022-07-23T14:33:18;9.65;;;7.90;;
47539;SDS011;33280;52.152;21.052;2022-07-23T14:35:46;8.40;;;7.40;;
47539;SDS011;33280;52.152;21.052;2022-07-23T14:38:13;10.68;;;7.72;;
47539;SDS011;33280;52.152;21.052;2022-07-23T14:40:40;11.07;;;8.30;;
47539;SDS011;33280;52.152;21.052;2022-07-23T14:43:08;25.33;;;8.07;;
47539;SDS011;33280;52.152;21.052;2022-07-23T14:45:37;25.17;;;7.13;;
47539;SDS011;33280;52.152;21.052;2022-07-23T14:48:04;40.45;;;8.00;;
47539;SDS011;33280;52.152;21.052;2022-07-23T14:50:33;32.35;;;8.25;;
47539;SDS011;33280;52.152;21.052;2022-07-23T14:53:01;22.02;;;8.02;;
47539;SDS011;33280;52.152;21.052;2022-07-23T14:55:30;22.92;;;7.63;;
47539;SDS011;33280;52.152;21.052;2022-07-23T14:57:59;18.70;;;7.82;;
47539;SDS011;33280;52.152;21.052;2022-07-23T15:00:26;15.10;;;8.23;;
47539;SDS011;33280;52.152;21.052;2022-07-23T15:02:53;15.77;;;7.60;;
47539;SDS011;33280;52.152;21.052;2022-07-23T15:05:21;17.20;;;7.57;;
47539;SDS011;33280;52.152;21.052;2022-07-23T15:07:50;10.95;;;5.43;;
47539;SDS011;33280;52.152;21.052;2022-07-23T15:10:18;8.45;;;5.40;;
47539;SDS011;33280;52.152;21.052;2022-07-23T15:12:47;8.43;;;5.43;;
47539;SDS011;33280;52.152;21.052;2022-07-23T15:15:15;8.10;;;5.70;;
47539;SDS011;33280;52.152;21.052;2022-07-23T15:17:43;10.77;;;5.30;;
47539;SDS011;33280;52.152;21.052;2022-07-23T15:20:10;7.57;;;4.90;;
47539;SDS011;33280;52.152;21.052;2022-07-23T15:22:40;10.32;;;6.18;;
47539;SDS011;33280;52.152;21.052;2022-07-23T15:25:07;11.33;;;7.07;;
47539;SDS011;33280;52.152;21.052;2022-07-23T15:27:37;11.97;;;7.77;;
47539;SDS011;33280;52.152;21.052;2022-07-23T15:30:04;12.43;;;7.97;;